Time;durP1;ratioP1;P1;durP2;ratioP2;P2;SDS_P1;SDS_P2;PMS_P1;PMS_P2;Temp;Humidity;BMP_temperature;BMP_pressure;BME280_temperature;BME280_humidity;BME280_pressure;Samples;Min_cycle;Max_cycle;Signal;HPM_P1;HPM_P2
2022/01/06 00:01:09;;;;;;;10.27;3.37;;;2.80;99.90;;;;;;4994381;28;20526;-69
2022/01/06 00:03:36;;;;;;;14.40;4.10;;;2.80;99.90;;;;;;4994063;28;20569;-69
2022/01/06 00:06:07;;;;;;;12.27;3.60;;;2.90;99.90;;;;;;4994517;28;20051;-69
2022/01/06 00:08:36;;;;;;;12.47;3.53;;;2.90;99.90;;;;;;4994406;28;20370;-69
2022/01/06 00:11:05;;;;;;;10.07;3.30;;;3.00;99.90;;;;;;4994233;28;20058;-69
2022/01/06 00:13:36;;;;;;;12.73;3.77;;;3.00;99.90;;;;;;4993892;28;20561;-69
2022/01/06 00:16:14;;;;;;;9.63;2.83;;;3.00;99.90;;;;;;4993251;28;20054;-69
2022/01/06 00:24:08;;;;;;;13.73;3.63;;;3.00;99.90;;;;;;4993705;28;20172;-69
2022/01/06 00:26:35;;;;;;;7.60;2.73;;;3.00;99.90;;;;;;4993722;28;20133;-69
2022/01/06 00:29:01;;;;;;;11.63;3.73;;;3.00;99.90;;;;;;4993559;28;20133;-69
2022/01/06 00:31:29;;;;;;;12.67;3.57;;;3.10;99.90;;;;;;4993488;28;20057;-69
2022/01/06 00:33:56;;;;;;;13.57;3.63;;;3.20;99.90;;;;;;4993465;28;20133;-69
2022/01/06 00:36:24;;;;;;;10.73;2.60;;;3.10;99.90;;;;;;4993697;28;20137;-69
2022/01/06 00:38:51;;;;;;;10.80;2.77;;;3.20;99.90;;;;;;4993567;28;20141;-69
2022/01/06 00:41:18;;;;;;;14.33;3.37;;;3.20;99.90;;;;;;4993718;28;20506;-69
2022/01/06 00:43:45;;;;;;;12.47;3.60;;;3.10;99.90;;;;;;4993559;28;20050;-69
2022/01/06 00:46:12;;;;;;;19.03;4.37;;;3.20;99.90;;;;;;4993534;28;20150;-69
2022/01/06 00:48:39;;;;;;;12.77;3.23;;;3.20;99.90;;;;;;4993764;28;20137;-69
2022/01/06 00:51:08;;;;;;;11.07;3.57;;;3.20;99.90;;;;;;4993496;28;20129;-69
2022/01/06 00:53:37;;;;;;;10.20;3.70;;;3.10;99.90;;;;;;4993315;28;20049;-69
2022/01/06 00:56:04;;;;;;;13.67;3.63;;;3.10;99.90;;;;;;4993175;28;20133;-69
2022/01/06 00:58:31;;;;;;;9.83;3.47;;;3.20;99.90;;;;;;4993285;28;20130;-69
2022/01/06 01:00:58;;;;;;;8.90;3.00;;;3.20;99.90;;;;;;4993095;28;20590;-69
2022/01/06 01:03:27;;;;;;;15.03;3.77;;;3.10;99.90;;;;;;4993617;28;20090;-69
2022/01/06 01:05:56;;;;;;;14.20;4.30;;;3.20;99.90;;;;;;4992639;28;20145;-69
2022/01/06 01:08:23;;;;;;;7.57;3.40;;;3.20;99.90;;;;;;4993006;28;20089;-69
2022/01/06 01:10:53;;;;;;;11.17;3.57;;;3.20;99.90;;;;;;4992866;28;20137;-69
2022/01/06 01:13:28;;;;;;;12.97;3.33;;;3.20;99.90;;;;;;4992949;28;20149;-69
2022/01/06 01:15:58;;;;;;;6.90;3.30;;;3.20;99.90;;;;;;4993116;28;20145;-69
2022/01/06 01:18:25;;;;;;;15.10;3.60;;;3.10;99.90;;;;;;4993065;28;20097;-69
2022/01/06 01:20:54;;;;;;;8.27;3.23;;;3.20;99.90;;;;;;4992816;28;20090;-69
2022/01/06 01:23:22;;;;;;;7.03;3.10;;;3.20;99.90;;;;;;4992777;28;20569;-69
2022/01/06 01:25:51;;;;;;;14.90;4.43;;;3.20;99.90;;;;;;4992587;28;20133;-69
2022/01/06 01:28:18;;;;;;;14.60;3.57;;;3.20;99.90;;;;;;4991913;28;20085;-69
2022/01/06 01:31:04;;;;;;;12.63;4.13;;;3.10;99.90;;;;;;4992573;28;20186;-69
2022/01/06 01:33:31;;;;;;;10.77;3.23;;;3.10;99.90;;;;;;4992666;28;20055;-69
2022/01/06 01:35:58;;;;;;;15.13;4.37;;;3.10;99.90;;;;;;4992613;28;20058;-69
2022/01/06 01:38:25;;;;;;;16.20;4.07;;;3.10;99.90;;;;;;4992784;28;20476;-69
2022/01/06 01:40:54;;;;;;;10.83;3.20;;;3.10;99.90;;;;;;4992304;28;20046;-69
2022/01/06 01:43:21;;;;;;;13.27;3.53;;;3.20;99.90;;;;;;4992393;28;20141;-69
2022/01/06 01:45:54;;;;;;;9.90;4.30;;;3.10;99.90;;;;;;4992247;28;20085;-69
2022/01/06 01:48:27;;;;;;;11.23;3.67;;;3.10;99.90;;;;;;4992705;28;20061;-69
2022/01/06 01:50:55;;;;;;;10.37;3.77;;;3.10;99.90;;;;;;4992520;28;20058;-69
2022/01/06 01:53:22;;;;;;;12.53;3.30;;;3.10;99.90;;;;;;4992251;28;20133;-69
2022/01/06 01:55:48;;;;;;;12.07;3.70;;;3.10;99.90;;;;;;4992422;28;20127;-69
2022/01/06 01:58:17;;;;;;;7.90;3.27;;;3.10;99.90;;;;;;4992356;28;20133;-69
2022/01/06 02:00:44;;;;;;;13.30;4.10;;;3.10;99.90;;;;;;4992148;28;20055;-69
2022/01/06 02:03:11;;;;;;;9.33;3.63;;;3.10;99.90;;;;;;4992201;28;20089;-69
2022/01/06 02:05:38;;;;;;;10.90;4.40;;;3.10;99.90;;;;;;4992077;28;20558;-69
2022/01/06 02:08:06;;;;;;;13.07;4.13;;;2.90;99.90;;;;;;4992636;28;20088;-69
2022/01/06 02:10:33;;;;;;;11.53;4.10;;;2.70;99.90;;;;;;4992119;28;20130;-69
2022/01/06 02:13:01;;;;;;;13.80;5.33;;;2.60;99.90;;;;;;4992019;28;20085;-69
2022/01/06 02:15:30;;;;;;;9.77;4.03;;;2.50;99.90;;;;;;4984230;28;20085;-68
2022/01/06 02:17:57;;;;;;;13.37;4.67;;;2.40;99.90;;;;;;4992399;28;20527;-68
2022/01/06 02:20:25;;;;;;;11.10;4.90;;;2.30;99.90;;;;;;4991953;28;20133;-68
2022/01/06 02:22:54;;;;;;;13.63;4.77;;;2.30;99.90;;;;;;4992403;28;20074;-68
2022/01/06 02:25:23;;;;;;;9.97;3.63;;;2.30;99.90;;;;;;4991879;28;20595;-68
2022/01/06 02:27:53;;;;;;;13.57;4.93;;;2.30;99.90;;;;;;4992212;28;20137;-68
2022/01/06 02:30:21;;;;;;;14.50;4.57;;;2.30;99.90;;;;;;4992375;28;20133;-68
2022/01/06 02:32:49;;;;;;;8.93;3.60;;;2.40;99.90;;;;;;4991849;28;20137;-68
2022/01/06 02:35:17;;;;;;;8.10;2.90;;;2.40;99.90;;;;;;4991960;28;20089;-68
2022/01/06 02:37:46;;;;;;;10.07;2.90;;;2.40;99.90;;;;;;4991898;28;20514;-68
2022/01/06 02:40:15;;;;;;;13.23;3.47;;;2.40;99.90;;;;;;4995464;28;20108;-68
2022/01/06 02:42:44;;;;;;;9.10;3.10;;;2.30;99.90;;;;;;4995806;28;20462;-68
2022/01/06 02:45:12;;;;;;;7.30;2.87;;;2.20;99.90;;;;;;4995650;28;20149;-68
2022/01/06 02:47:40;;;;;;;12.03;4.40;;;2.10;99.90;;;;;;4995772;28;20414;-68
2022/01/06 02:50:08;;;;;;;9.40;3.60;;;2.00;99.90;;;;;;4995569;28;20125;-68
2022/01/06 02:52:35;;;;;;;10.87;3.90;;;2.00;99.90;;;;;;4995595;28;20065;-68
2022/01/06 02:55:05;;;;;;;12.23;4.00;;;1.90;99.90;;;;;;4995828;28;20129;-68
2022/01/06 02:57:32;;;;;;;8.30;3.50;;;1.90;99.90;;;;;;4995718;28;20046;-68
2022/01/06 02:59:59;;;;;;;11.70;4.47;;;1.80;99.90;;;;;;4995444;28;20593;-68
2022/01/06 03:02:26;;;;;;;9.63;4.20;;;1.90;99.90;;;;;;4995243;28;20137;-68
2022/01/06 03:04:53;;;;;;;10.57;4.10;;;1.90;99.90;;;;;;4995634;28;20094;-68
2022/01/06 03:07:20;;;;;;;13.77;5.00;;;2.00;99.90;;;;;;4995176;28;20141;-68
2022/01/06 03:09:53;;;;;;;11.37;4.13;;;1.90;99.90;;;;;;4995651;28;20092;-68
2022/01/06 03:12:27;;;;;;;10.33;4.73;;;1.90;99.90;;;;;;4995283;28;20058;-68
2022/01/06 03:14:54;;;;;;;11.20;4.27;;;1.90;99.90;;;;;;4995214;28;20490;-68
2022/01/06 03:17:21;;;;;;;12.93;4.20;;;2.00;99.90;;;;;;4995114;28;20533;-68
2022/01/06 03:19:48;;;;;;;12.07;4.30;;;1.90;99.90;;;;;;4995230;28;20499;-68
2022/01/06 03:22:15;;;;;;;13.47;4.33;;;1.90;99.90;;;;;;4995117;28;20085;-68
2022/01/06 03:24:43;;;;;;;13.97;4.60;;;1.90;99.90;;;;;;4995209;28;20093;-68
2022/01/06 03:27:10;;;;;;;12.03;4.63;;;1.80;99.90;;;;;;4994788;28;20133;-68
2022/01/06 03:29:38;;;;;;;13.20;4.23;;;1.80;99.90;;;;;;4995004;28;20093;-68
2022/01/06 03:32:06;;;;;;;16.27;5.57;;;1.80;99.90;;;;;;4994706;28;20145;-68
2022/01/06 03:34:33;;;;;;;15.83;4.80;;;1.80;99.90;;;;;;4994776;28;20134;-68
2022/01/06 03:39:34;;;;;;;15.00;4.97;;;1.70;99.90;;;;;;4974280;28;20051;-66
2022/01/06 03:42:01;;;;;;;12.47;3.80;;;1.60;99.90;;;;;;4983037;28;20046;-67
2022/01/06 03:44:28;;;;;;;12.57;4.63;;;1.70;99.90;;;;;;4995173;28;20145;-66
2022/01/06 03:46:56;;;;;;;13.60;4.60;;;1.80;99.90;;;;;;4994711;28;20046;-66
2022/01/06 03:49:23;;;;;;;15.43;4.60;;;1.90;99.90;;;;;;4994911;28;20054;-66
2022/01/06 03:51:50;;;;;;;16.23;5.00;;;1.90;99.90;;;;;;4993930;28;20082;-67
2022/01/06 03:54:18;;;;;;;19.17;5.10;;;2.00;99.90;;;;;;4994461;28;20133;-66
2022/01/06 03:56:47;;;;;;;10.73;4.33;;;2.00;99.90;;;;;;4994853;28;20143;-66
2022/01/06 03:59:14;;;;;;;17.67;5.10;;;2.00;99.90;;;;;;4994875;28;20149;-66
2022/01/06 04:01:41;;;;;;;12.93;3.90;;;2.00;99.90;;;;;;4994504;28;20490;-67
2022/01/06 04:04:09;;;;;;;12.80;4.33;;;2.10;99.90;;;;;;4994313;28;20092;-67
2022/01/06 04:06:36;;;;;;;16.67;5.47;;;2.00;99.90;;;;;;4994035;28;20459;-67
2022/01/06 04:09:04;;;;;;;9.37;4.93;;;2.00;99.90;;;;;;4994665;28;20050;-67
2022/01/06 04:11:31;;;;;;;13.90;4.27;;;2.10;99.90;;;;;;4994534;28;20137;-66
2022/01/06 04:13:58;;;;;;;16.30;4.00;;;2.10;99.90;;;;;;4994353;28;20137;-66
2022/01/06 04:16:27;;;;;;;13.67;4.10;;;2.10;99.90;;;;;;4993849;28;20061;-68
2022/01/06 04:18:54;;;;;;;15.43;3.83;;;2.10;99.90;;;;;;4994104;28;20581;-67
2022/01/06 04:21:23;;;;;;;12.60;4.03;;;2.00;99.90;;;;;;4993879;28;20050;-65
2022/01/06 04:23:50;;;;;;;10.33;4.37;;;1.80;99.90;;;;;;4994161;28;20522;-65
2022/01/06 04:26:17;;;;;;;12.73;4.23;;;1.90;99.90;;;;;;4993835;28;20400;-66
2022/01/06 04:28:44;;;;;;;15.43;4.57;;;1.70;99.90;;;;;;4993996;28;20137;-66
2022/01/06 04:31:11;;;;;;;11.37;4.37;;;1.90;99.90;;;;;;4993854;28;20163;-66
2022/01/06 04:33:38;;;;;;;14.17;4.03;;;1.80;99.90;;;;;;4993569;28;20058;-65
2022/01/06 04:36:06;;;;;;;14.93;3.83;;;1.80;99.90;;;;;;4993651;28;20141;-66
2022/01/06 04:38:36;;;;;;;11.60;3.67;;;1.90;99.90;;;;;;4993537;28;20054;-66
2022/01/06 04:41:03;;;;;;;11.50;4.13;;;2.00;99.90;;;;;;4993971;28;20047;-67
2022/01/06 04:43:30;;;;;;;13.23;4.00;;;2.00;99.90;;;;;;4993633;28;20570;-66
2022/01/06 04:45:58;;;;;;;10.93;3.27;;;2.10;99.90;;;;;;4993472;28;20487;-66
2022/01/06 04:48:25;;;;;;;15.43;4.10;;;2.10;99.90;;;;;;4993564;28;20050;-66
2022/01/06 04:50:53;;;;;;;10.13;2.70;;;2.10;99.90;;;;;;4994169;28;20082;-66
2022/01/06 04:53:19;;;;;;;9.10;2.47;;;2.10;99.90;;;;;;4993230;28;20451;-66
2022/01/06 04:55:49;;;;;;;9.43;3.13;;;2.00;99.90;;;;;;4993330;28;20138;-66
2022/01/06 04:58:16;;;;;;;7.83;2.43;;;2.10;99.90;;;;;;4993486;28;20056;-66
2022/01/06 05:00:43;;;;;;;14.27;2.97;;;2.20;99.90;;;;;;4993143;28;20081;-66
2022/01/06 05:03:10;;;;;;;7.90;2.97;;;2.10;99.90;;;;;;4993013;28;20145;-66
2022/01/06 05:05:37;;;;;;;6.87;2.37;;;2.10;99.90;;;;;;4993247;28;20149;-66
2022/01/06 05:08:04;;;;;;;7.07;2.60;;;2.20;99.90;;;;;;4993326;28;20055;-66
2022/01/06 05:10:31;;;;;;;8.43;2.80;;;2.20;99.90;;;;;;4993098;28;20487;-66
2022/01/06 05:12:59;;;;;;;11.53;2.53;;;2.20;99.90;;;;;;4992903;28;20090;-67
2022/01/06 05:15:26;;;;;;;6.63;2.20;;;2.20;99.90;;;;;;4992585;28;20141;-67
2022/01/06 05:17:53;;;;;;;9.37;3.03;;;2.20;99.90;;;;;;4992777;28;20061;-67
2022/01/06 05:20:25;;;;;;;8.03;2.27;;;2.30;99.90;;;;;;4992875;28;20050;-67
2022/01/06 05:22:55;;;;;;;8.30;2.17;;;2.30;99.90;;;;;;4993022;28;20089;-66
2022/01/06 05:25:25;;;;;;;9.90;2.93;;;2.30;99.90;;;;;;4992856;28;20058;-66
2022/01/06 05:27:52;;;;;;;10.23;2.50;;;2.30;99.90;;;;;;4992848;28;20058;-66
2022/01/06 05:30:21;;;;;;;10.93;3.10;;;2.30;99.90;;;;;;4992966;28;20506;-67
2022/01/06 05:32:48;;;;;;;9.93;2.80;;;2.30;99.90;;;;;;4993242;28;20129;-67
2022/01/06 05:35:15;;;;;;;13.10;2.40;;;2.40;99.90;;;;;;4993210;28;20089;-66
2022/01/06 05:37:42;;;;;;;8.20;3.40;;;2.40;99.90;;;;;;4993330;28;20133;-67
2022/01/06 05:40:10;;;;;;;11.63;2.57;;;2.40;99.90;;;;;;4993176;28;20136;-66
2022/01/06 05:42:37;;;;;;;11.63;2.47;;;2.40;99.90;;;;;;4993061;28;20141;-66
2022/01/06 05:45:05;;;;;;;7.83;2.13;;;2.50;99.90;;;;;;4993557;28;20085;-67
2022/01/06 05:47:33;;;;;;;13.27;2.97;;;2.50;99.90;;;;;;4992652;28;20125;-66
2022/01/06 05:50:00;;;;;;;13.13;3.07;;;2.40;99.90;;;;;;4992523;28;20149;-67
2022/01/06 05:52:27;;;;;;;17.07;3.10;;;2.40;99.90;;;;;;4992597;28;20141;-67
2022/01/06 05:54:54;;;;;;;9.23;2.60;;;2.50;99.90;;;;;;4992189;28;20100;-67
2022/01/06 05:57:21;;;;;;;11.60;2.47;;;2.50;99.90;;;;;;4992425;28;20112;-67
2022/01/06 05:59:48;;;;;;;8.63;2.50;;;2.50;99.90;;;;;;4992702;28;20136;-65
2022/01/06 06:02:15;;;;;;;9.90;2.40;;;2.50;99.90;;;;;;4992745;28;20481;-65
2022/01/06 06:04:43;;;;;;;7.63;2.77;;;2.50;99.90;;;;;;4992067;28;20047;-65
2022/01/06 06:07:10;;;;;;;11.07;2.60;;;2.50;99.90;;;;;;4992540;28;20100;-66
2022/01/06 06:09:37;;;;;;;14.87;3.07;;;2.50;99.90;;;;;;4992092;28;20101;-66
2022/01/06 06:12:06;;;;;;;11.80;2.47;;;2.50;99.90;;;;;;4992271;28;20141;-67
2022/01/06 06:14:33;;;;;;;9.70;2.87;;;2.40;99.90;;;;;;4991751;28;20054;-66
2022/01/06 06:17:00;;;;;;;14.40;3.20;;;2.50;99.90;;;;;;4992346;28;20097;-66
2022/01/06 06:19:27;;;;;;;12.53;3.80;;;2.50;99.90;;;;;;4992419;28;20097;-66
2022/01/06 06:21:55;;;;;;;11.07;3.53;;;2.50;99.90;;;;;;4993795;28;20097;-66
2022/01/06 06:24:23;;;;;;;9.40;2.90;;;2.50;99.90;;;;;;4993676;28;20085;-65
2022/01/06 06:26:50;;;;;;;9.43;3.30;;;2.60;99.90;;;;;;4992429;28;20450;-66
2022/01/06 06:29:17;;;;;;;12.27;3.03;;;2.50;99.90;;;;;;4992284;28;20054;-66
2022/01/06 06:31:44;;;;;;;13.90;3.00;;;2.50;99.90;;;;;;4991854;28;20085;-65
2022/01/06 06:34:11;;;;;;;8.57;2.97;;;2.50;99.90;;;;;;4992066;28;20485;-65
2022/01/06 06:36:38;;;;;;;12.40;4.00;;;2.50;99.90;;;;;;4991918;28;20047;-66
2022/01/06 06:39:07;;;;;;;15.10;3.07;;;2.50;99.90;;;;;;4991829;28;20112;-65
2022/01/06 06:41:34;;;;;;;9.77;2.97;;;2.60;99.90;;;;;;4991857;28;20146;-65
2022/01/06 06:44:01;;;;;;;12.47;2.83;;;2.50;99.90;;;;;;4991800;28;20567;-66
2022/01/06 06:46:28;;;;;;;16.93;3.53;;;2.50;99.90;;;;;;4983962;28;20133;-65
2022/01/06 06:48:55;;;;;;;15.70;3.10;;;2.50;99.90;;;;;;4991794;28;20133;-67
2022/01/06 06:51:22;;;;;;;15.63;3.53;;;2.50;99.90;;;;;;4991754;28;20137;-65
2022/01/06 06:53:49;;;;;;;13.33;3.63;;;2.50;99.90;;;;;;4991941;28;20523;-65
2022/01/06 06:56:17;;;;;;;11.93;3.13;;;2.50;99.90;;;;;;4991696;28;20141;-66
2022/01/06 06:58:44;;;;;;;15.53;4.43;;;2.40;99.90;;;;;;4991786;28;20137;-66
2022/01/06 07:01:11;;;;;;;11.00;3.60;;;2.50;99.90;;;;;;4991639;28;20089;-65
2022/01/06 07:03:38;;;;;;;13.00;3.40;;;2.50;99.90;;;;;;4991721;28;20137;-65
2022/01/06 07:06:04;;;;;;;13.77;3.83;;;2.50;99.90;;;;;;4991452;28;20133;-65
2022/01/06 07:08:31;;;;;;;14.73;3.80;;;2.60;99.90;;;;;;4991626;28;20581;-66
2022/01/06 07:10:58;;;;;;;16.40;3.70;;;2.50;99.90;;;;;;4991906;28;20464;-65
2022/01/06 07:13:27;;;;;;;14.57;3.70;;;2.50;99.90;;;;;;4991693;28;20056;-66
2022/01/06 07:15:54;;;;;;;8.57;3.47;;;2.50;99.90;;;;;;4991601;28;20050;-66
2022/01/06 07:18:21;;;;;;;9.87;2.90;;;2.50;99.90;;;;;;4991351;28;20530;-65
2022/01/06 07:20:48;;;;;;;13.60;4.47;;;2.60;99.90;;;;;;4991523;28;20061;-66
2022/01/06 07:23:15;;;;;;;17.57;4.33;;;2.60;99.90;;;;;;4991535;28;20494;-65
2022/01/06 07:25:42;;;;;;;15.57;3.73;;;2.60;99.90;;;;;;4992452;28;20140;-66
2022/01/06 07:28:09;;;;;;;15.73;4.00;;;2.60;99.90;;;;;;4995064;28;20085;-65
2022/01/06 07:30:37;;;;;;;12.00;3.00;;;2.60;99.90;;;;;;4995037;28;20570;-65
2022/01/06 07:33:04;;;;;;;14.57;3.60;;;2.70;99.90;;;;;;4994813;28;20129;-66
2022/01/06 07:35:31;;;;;;;22.17;4.83;;;2.70;99.90;;;;;;4994503;28;20050;-66
2022/01/06 07:37:58;;;;;;;10.30;3.63;;;2.60;99.90;;;;;;4994949;28;20133;-65
2022/01/06 07:40:25;;;;;;;17.80;4.93;;;2.70;99.90;;;;;;4994805;28;20085;-66
2022/01/06 07:42:53;;;;;;;11.27;3.83;;;2.60;99.90;;;;;;4994628;28;20078;-66
2022/01/06 07:45:20;;;;;;;13.17;3.73;;;2.70;99.90;;;;;;4994276;28;20570;-66
2022/01/06 07:48:00;;;;;;;12.87;3.40;;;2.70;99.90;;;;;;4995446;28;20062;-66
2022/01/06 07:50:30;;;;;;;14.57;3.47;;;2.60;99.90;;;;;;4995309;28;20054;-66
2022/01/06 07:52:58;;;;;;;14.27;3.77;;;2.60;99.90;;;;;;4994580;28;20146;-65
2022/01/06 07:55:25;;;;;;;16.40;3.63;;;2.60;99.90;;;;;;4994344;28;20153;-65
2022/01/06 07:57:54;;;;;;;13.40;2.87;;;2.70;99.90;;;;;;4994379;28;20133;-66
2022/01/06 08:00:22;;;;;;;13.10;3.40;;;2.70;99.90;;;;;;4994503;28;20060;-66
2022/01/06 08:02:50;;;;;;;18.60;4.17;;;2.70;99.90;;;;;;4994723;28;20073;-67
2022/01/06 08:05:19;;;;;;;18.57;3.33;;;2.80;99.90;;;;;;4994167;28;20085;-67
2022/01/06 08:07:46;;;;;;;14.00;3.27;;;2.80;99.90;;;;;;4994568;28;20095;-67
2022/01/06 08:10:13;;;;;;;15.77;4.37;;;2.80;99.90;;;;;;4994953;28;20137;-67
2022/01/06 08:12:40;;;;;;;21.87;5.13;;;2.80;99.90;;;;;;4994398;28;20506;-65
2022/01/06 08:15:07;;;;;;;12.53;2.93;;;2.80;99.90;;;;;;4994273;28;20570;-66
2022/01/06 08:17:36;;;;;;;9.53;3.30;;;2.80;99.90;;;;;;4994582;28;20046;-66
2022/01/06 08:20:05;;;;;;;16.47;3.83;;;2.80;99.90;;;;;;4994358;28;20057;-66
2022/01/06 08:22:32;;;;;;;13.60;3.03;;;2.70;99.90;;;;;;4994389;28;20317;-67
2022/01/06 08:24:59;;;;;;;10.67;2.70;;;2.70;99.90;;;;;;4993857;28;20518;-67
2022/01/06 08:27:26;;;;;;;12.27;2.47;;;2.40;99.90;;;;;;4994075;28;20093;-67
2022/01/06 08:29:53;;;;;;;11.23;2.83;;;2.30;99.90;;;;;;4994247;28;20138;-68
2022/01/06 08:32:21;;;;;;;11.13;2.67;;;2.20;99.90;;;;;;4994182;28;20081;-67
2022/01/06 08:34:48;;;;;;;9.97;2.77;;;2.30;99.90;;;;;;4994014;28;20121;-67
2022/01/06 08:37:17;;;;;;;9.73;2.90;;;2.30;99.90;;;;;;4993267;28;20133;-67
2022/01/06 08:39:44;;;;;;;12.63;3.07;;;2.30;99.90;;;;;;4993968;28;20137;-66
2022/01/06 08:42:12;;;;;;;11.63;3.83;;;2.40;99.90;;;;;;4994043;28;20054;-66
2022/01/06 08:44:41;;;;;;;11.83;3.17;;;2.50;99.90;;;;;;4993957;28;20137;-66
2022/01/06 08:47:09;;;;;;;13.60;3.57;;;2.60;99.90;;;;;;4994017;28;20046;-66
2022/01/06 08:49:36;;;;;;;18.83;3.83;;;2.80;99.90;;;;;;4993379;28;20561;-66
2022/01/06 08:52:04;;;;;;;14.70;4.10;;;2.80;99.90;;;;;;4993578;28;20198;-66
2022/01/06 08:54:32;;;;;;;14.43;3.60;;;2.80;99.90;;;;;;4993296;28;20129;-65
2022/01/06 08:56:59;;;;;;;11.60;3.40;;;3.00;99.90;;;;;;4993000;28;20054;-66
2022/01/06 08:59:26;;;;;;;13.10;2.90;;;3.10;99.90;;;;;;4993222;28;20473;-66
2022/01/06 09:01:53;;;;;;;8.47;2.77;;;3.30;99.90;;;;;;4993017;28;20097;-65
2022/01/06 09:04:20;;;;;;;9.07;2.77;;;3.60;99.90;;;;;;4993130;28;20129;-66
2022/01/06 09:06:48;;;;;;;11.40;2.70;;;3.70;99.90;;;;;;4992763;28;20482;-66
2022/01/06 09:09:15;;;;;;;8.40;2.37;;;3.80;99.90;;;;;;4993473;28;20054;-66
2022/01/06 09:11:44;;;;;;;11.10;2.73;;;3.50;99.90;;;;;;4993157;28;20112;-66
2022/01/06 09:14:11;;;;;;;12.63;3.37;;;3.40;99.90;;;;;;4993121;28;20135;-66
2022/01/06 09:16:39;;;;;;;7.90;2.50;;;3.40;99.90;;;;;;4992571;28;20129;-65
2022/01/06 09:19:06;;;;;;;10.90;2.53;;;3.40;99.90;;;;;;4993113;28;20089;-66
2022/01/06 09:21:33;;;;;;;11.10;3.57;;;3.30;99.90;;;;;;4992800;28;20056;-66
2022/01/06 09:24:01;;;;;;;16.53;3.03;;;3.30;99.90;;;;;;4993272;28;20089;-66
2022/01/06 09:26:29;;;;;;;12.13;2.90;;;3.60;99.90;;;;;;4992829;28;20050;-66
2022/01/06 09:28:57;;;;;;;12.57;3.17;;;5.20;99.90;;;;;;4993049;28;20061;-66
2022/01/06 09:31:24;;;;;;;11.60;3.28;;;6.00;99.90;;;;;;4993178;28;20137;-66
2022/01/06 09:33:51;;;;;;;11.43;3.05;;;7.60;99.90;;;;;;4992813;28;20133;-66
2022/01/06 09:36:18;;;;;;;13.38;3.17;;;8.70;99.90;;;;;;4992476;28;20056;-65
2022/01/06 09:38:46;;;;;;;9.38;2.72;;;7.80;99.90;;;;;;5005847;23;20146;-69
2022/01/06 09:41:14;;;;;;;8.30;2.88;;;9.70;99.90;;;;;;4992972;28;20064;-69
2022/01/06 09:43:43;;;;;;;11.40;3.78;;;11.60;99.90;;;;;;4992746;28;20060;-67
2022/01/06 09:46:12;;;;;;;12.70;2.95;;;10.50;99.90;;;;;;4992692;28;20065;-68
2022/01/06 09:48:41;;;;;;;11.15;2.97;;;12.00;99.90;;;;;;4991886;28;20137;-68
2022/01/06 09:51:11;;;;;;;8.77;2.63;;;12.30;99.90;;;;;;4992362;28;20506;-68
2022/01/06 09:53:38;;;;;;;6.72;2.00;;;12.90;99.90;;;;;;4992682;28;20046;-68
2022/01/06 09:56:06;;;;;;;8.80;2.50;;;13.90;99.90;;;;;;4992252;28;20153;-68
2022/01/06 09:58:33;;;;;;;8.88;2.47;;;14.40;99.90;;;;;;4992545;28;20160;-68
2022/01/06 10:01:01;;;;;;;13.77;2.00;;;15.40;99.90;;;;;;4992719;28;20137;-68
2022/01/06 10:03:36;;;;;;;7.78;1.75;;;14.90;99.90;;;;;;4984469;28;20422;-68
2022/01/06 10:06:11;;;;;;;6.60;2.22;;;15.70;99.90;;;;;;4992147;28;20133;-69
2022/01/06 10:08:38;;;;;;;6.38;1.77;;;17.00;99.90;;;;;;4992301;28;20058;-68
2022/01/06 10:11:10;;;;;;;7.22;1.80;;;17.90;99.30;;;;;;4992030;28;20137;-68
2022/01/06 10:13:37;;;;;;;5.35;1.42;;;19.50;96.50;;;;;;4992288;28;20058;-68
2022/01/06 10:16:19;;;;;;;5.75;1.63;;;19.20;96.00;;;;;;4992010;28;20490;-68
2022/01/06 10:19:02;;;;;;;4.85;1.65;;;21.30;93.40;;;;;;4992369;28;20133;-68
2022/01/06 10:21:35;;;;;;;6.53;1.92;;;21.30;92.50;;;;;;4991906;28;20140;-68
2022/01/06 10:24:03;;;;;;;5.47;1.40;;;19.40;92.60;;;;;;4992120;28;20515;-68
2022/01/06 10:26:31;;;;;;;4.32;1.58;;;18.60;94.10;;;;;;4991766;28;20050;-68
2022/01/06 10:28:58;;;;;;;6.15;1.50;;;20.50;93.30;;;;;;4992182;28;20581;-68
2022/01/06 10:31:26;;;;;;;5.68;1.90;;;21.90;92.40;;;;;;4991914;28;20142;-68
2022/01/06 10:33:54;;;;;;;8.73;2.35;;;21.80;91.80;;;;;;4992074;28;20081;-68
2022/01/06 10:36:28;;;;;;;7.13;1.85;;;19.60;93.70;;;;;;4992212;28;20054;-68
2022/01/06 10:38:58;;;;;;;4.15;1.27;;;20.80;94.00;;;;;;4992067;28;20051;-68
2022/01/06 10:41:27;;;;;;;3.97;1.20;;;20.30;93.30;;;;;;4992154;28;20510;-68
2022/01/06 10:43:56;;;;;;;5.70;1.35;;;18.90;92.80;;;;;;4992122;28;20050;-68
2022/01/06 10:46:31;;;;;;;4.30;1.10;;;16.50;93.10;;;;;;4991781;28;20089;-68
2022/01/06 10:48:59;;;;;;;2.97;1.00;;;14.90;93.30;;;;;;4992384;28;20459;-69
2022/01/06 10:51:49;;;;;;;5.13;1.10;;;17.70;91.60;;;;;;4991875;28;20058;-69
2022/01/06 10:54:20;;;;;;;5.30;1.08;;;13.00;94.80;;;;;;4987191;28;20511;-68
2022/01/06 10:56:59;;;;;;;2.38;0.70;;;14.80;94.80;;;;;;4991628;28;20057;-68
2022/01/06 10:59:27;;;;;;;1.75;0.70;;;17.30;92.00;;;;;;4992676;28;20141;-68
2022/01/06 11:01:54;;;;;;;2.92;0.75;;;19.30;90.30;;;;;;4995313;28;20506;-68
2022/01/06 11:04:21;;;;;;;3.00;0.90;;;18.50;89.70;;;;;;4995490;28;20085;-68
2022/01/06 11:06:50;;;;;;;5.32;0.80;;;19.60;88.20;;;;;;4995186;28;20136;-68
2022/01/06 11:09:17;;;;;;;4.47;0.82;;;18.30;90.00;;;;;;4995278;28;20105;-66
2022/01/06 11:12:26;;;;;;;2.95;1.20;;;19.70;87.80;;;;;;4995385;28;20136;-66
2022/01/06 11:14:32;;;;;;;2.13;0.70;;;18.70;88.40;;;;;;4995042;28;20073;-68
2022/01/06 11:16:59;;;;;;;1.45;0.68;;;19.20;84.70;;;;;;4995352;28;20065;-68
2022/01/06 11:19:29;;;;;;;3.28;0.93;;;19.80;85.60;;;;;;4995292;28;20096;-68
2022/01/06 11:22:04;;;;;;;2.28;0.90;;;19.80;87.10;;;;;;4995382;28;20051;-68
2022/01/06 11:24:31;;;;;;;4.28;0.80;;;18.10;90.70;;;;;;4995281;28;20058;-68
2022/01/06 11:27:00;;;;;;;3.33;0.90;;;16.10;93.80;;;;;;4994775;28;20506;-68
2022/01/06 11:29:28;;;;;;;1.85;0.80;;;18.80;91.60;;;;;;4995028;28;20132;-68
2022/01/06 11:31:55;;;;;;;2.53;0.80;;;17.60;92.30;;;;;;4994794;28;20141;-68
2022/01/06 11:34:22;;;;;;;2.90;0.80;;;17.70;90.60;;;;;;4994910;28;20069;-68
2022/01/06 11:36:52;;;;;;;3.97;0.70;;;19.00;91.70;;;;;;4994595;28;20051;-69
2022/01/06 11:39:26;;;;;;;4.15;0.90;;;18.90;90.70;;;;;;4995023;28;20072;-69
2022/01/06 11:41:53;;;;;;;3.13;0.90;;;18.70;91.10;;;;;;5001478;28;20049;-69
2022/01/06 11:44:22;;;;;;;4.25;1.05;;;17.30;92.70;;;;;;4992532;28;20057;-69
2022/01/06 11:46:53;;;;;;;5.55;1.02;;;16.10;92.00;;;;;;4991863;28;20137;-69
2022/01/06 11:49:35;;;;;;;6.07;1.02;;;15.90;93.70;;;;;;4994035;28;20130;-70
2022/01/06 11:52:07;;;;;;;5.10;1.02;;;17.60;91.60;;;;;;4995989;28;20133;-70
2022/01/06 11:54:47;;;;;;;2.33;0.90;;;16.00;92.30;;;;;;4996264;28;20088;-69
2022/01/06 11:57:14;;;;;;;3.17;1.27;;;16.50;92.80;;;;;;4995676;28;20457;-68
2022/01/06 11:59:41;;;;;;;5.50;1.00;;;13.80;93.00;;;;;;4995426;28;20114;-69
2022/01/06 12:02:08;;;;;;;4.03;1.50;;;15.40;93.40;;;;;;4995297;28;20145;-68
2022/01/06 12:04:38;;;;;;;4.82;1.23;;;14.40;94.00;;;;;;4997206;28;20141;-68
2022/01/06 12:07:07;;;;;;;5.15;1.15;;;14.40;93.40;;;;;;4996674;28;20082;-68
2022/01/06 12:09:35;;;;;;;4.30;1.25;;;11.70;95.40;;;;;;4997538;28;20054;-68
2022/01/06 12:12:04;;;;;;;6.82;1.63;;;12.70;97.30;;;;;;5002210;28;20089;-68
2022/01/06 12:14:32;;;;;;;1.25;0.88;;;13.40;96.70;;;;;;4999983;28;20537;-69
2022/01/06 12:17:06;;;;;;;3.83;1.05;;;12.70;96.80;;;;;;4994710;28;20482;-68
2022/01/06 12:19:34;;;;;;;4.07;0.95;;;11.70;97.10;;;;;;4994460;28;20120;-68
2022/01/06 12:22:03;;;;;;;4.43;0.98;;;10.40;96.20;;;;;;4994313;28;20074;-68
2022/01/06 12:24:30;;;;;;;6.20;1.40;;;9.90;99.60;;;;;;4994295;28;20054;-68
2022/01/06 12:27:03;;;;;;;3.33;1.27;;;10.40;97.60;;;;;;4993794;28;20536;-68
2022/01/06 12:29:37;;;;;;;4.43;1.42;;;10.10;99.90;;;;;;4994096;28;20133;-68
2022/01/06 12:32:20;;;;;;;4.78;1.20;;;11.00;99.30;;;;;;4994031;28;20418;-68
2022/01/06 12:34:52;;;;;;;5.97;1.20;;;9.40;99.00;;;;;;4993826;28;20058;-68
2022/01/06 12:37:25;;;;;;;4.97;1.25;;;11.80;97.80;;;;;;4993689;28;20589;-69
2022/01/06 12:39:52;;;;;;;5.93;1.60;;;12.20;95.50;;;;;;4993720;28;20140;-68
2022/01/06 12:42:21;;;;;;;7.82;1.48;;;12.20;97.20;;;;;;4994226;28;20137;-68
2022/01/06 12:44:47;;;;;;;3.55;1.38;;;13.70;96.10;;;;;;4993914;28;20141;-68
2022/01/06 12:47:15;;;;;;;3.25;1.00;;;12.20;96.40;;;;;;4993613;28;20398;-67
2022/01/06 12:49:42;;;;;;;5.78;1.50;;;12.50;95.70;;;;;;4993786;28;20562;-68
2022/01/06 12:52:09;;;;;;;4.20;1.30;;;13.30;95.20;;;;;;4993236;28;20447;-68
2022/01/06 12:54:40;;;;;;;3.05;1.02;;;13.00;95.30;;;;;;4993687;28;20133;-68
2022/01/06 12:57:09;;;;;;;5.07;1.23;;;13.90;96.20;;;;;;4993984;28;20069;-68
2022/01/06 12:59:39;;;;;;;7.57;1.13;;;10.00;97.50;;;;;;5001031;28;20061;-68
2022/01/06 13:02:09;;;;;;;4.10;1.20;;;8.20;99.90;;;;;;4996004;28;20054;-68